Time;durP1;ratioP1;P1;durP2;ratioP2;P2;SDS_P1;SDS_P2;PMS_P1;PMS_P2;Temp;Humidity;BMP_temperature;BMP_pressure;BME280_temperature;BME280_humidity;BME280_pressure;Samples;Min_cycle;Max_cycle;Signal;HPM_P1;HPM_P2
2022/03/03 00:00:32;;;;;;;26.60;13.05;;;;;;;2.25;69.00;102059.44;5052191;28;20053;-51
2022/03/03 00:03:00;;;;;;;26.23;12.70;;;;;;;2.19;69.55;102060.34;5052336;28;20511;-50
2022/03/03 00:05:28;;;;;;;24.45;13.70;;;;;;;2.25;69.23;102061.16;5052501;28;20056;-59
2022/03/03 00:07:56;;;;;;;23.75;12.15;;;;;;;2.21;68.95;102065.53;5052310;28;20076;-59
2022/03/03 00:10:25;;;;;;;26.27;13.07;;;;;;;2.19;69.57;102059.50;5052030;28;20045;-58
2022/03/03 00:12:53;;;;;;;24.92;11.95;;;;;;;2.20;69.03;102061.22;5052201;28;20037;-59
2022/03/03 00:15:23;;;;;;;22.88;13.25;;;;;;;2.16;69.70;102064.72;5052226;28;20071;-49
2022/03/03 00:17:51;;;;;;;23.33;12.10;;;;;;;2.11;69.95;102051.78;5052159;28;20048;-48
2022/03/03 00:20:19;;;;;;;24.48;12.93;;;;;;;2.12;70.10;102061.28;5052223;28;20060;-49
2022/03/03 00:22:47;;;;;;;25.08;12.68;;;;;;;2.08;70.19;102064.81;5052115;28;20099;-52
2022/03/03 00:25:17;;;;;;;23.75;13.00;;;;;;;2.02;70.50;102049.31;5052227;28;20530;-51
2022/03/03 00:27:45;;;;;;;24.75;13.88;;;;;;;2.01;70.87;102048.44;5054748;28;20048;-50
2022/03/03 00:30:13;;;;;;;21.83;12.10;;;;;;;1.96;71.12;102045.00;5054961;28;20045;-49
2022/03/03 00:32:43;;;;;;;24.55;12.45;;;;;;;1.94;70.79;102040.75;5055974;28;20377;-51
2022/03/03 00:35:12;;;;;;;23.88;12.95;;;;;;;1.93;71.06;102036.41;5056013;28;20045;-49
2022/03/03 00:37:41;;;;;;;28.67;14.30;;;;;;;1.91;71.30;102028.66;5056031;28;20492;-48
2022/03/03 00:40:10;;;;;;;24.73;13.00;;;;;;;1.91;70.90;102036.44;5056072;28;20072;-48
2022/03/03 00:42:38;;;;;;;26.00;13.18;;;;;;;1.89;70.80;102032.97;5055877;28;20127;-58
2022/03/03 00:45:08;;;;;;;26.92;14.07;;;;;;;1.81;71.16;102035.66;5056311;28;20044;-52
2022/03/03 00:47:36;;;;;;;25.88;13.45;;;;;;;1.79;71.63;102034.81;5052575;28;20049;-51
2022/03/03 00:50:06;;;;;;;25.10;13.10;;;;;;;1.76;71.49;102032.25;5051826;28;20051;-58
2022/03/03 00:52:35;;;;;;;24.05;13.55;;;;;;;1.73;71.39;102036.59;5054809;28;20060;-58
2022/03/03 00:55:04;;;;;;;26.67;14.43;;;;;;;1.64;72.31;102033.22;5052574;28;20057;-59
2022/03/03 00:57:32;;;;;;;25.63;12.95;;;;;;;1.57;73.24;102038.47;5053524;28;20139;-49
2022/03/03 01:00:01;;;;;;;28.52;14.18;;;;;;;1.60;72.57;102041.91;5055522;28;20392;-50
2022/03/03 01:02:29;;;;;;;26.33;13.65;;;;;;;1.55;73.60;102027.25;5055344;28;20045;-58
2022/03/03 01:04:57;;;;;;;25.17;12.98;;;;;;;1.51;73.82;102045.44;5054212;28;20057;-58
2022/03/03 01:07:27;;;;;;;23.27;13.32;;;;;;;1.50;74.02;102040.25;5055305;28;20144;-50
2022/03/03 01:09:56;;;;;;;24.77;12.93;;;;;;;1.46;74.13;102042.00;5055287;28;20045;-52
2022/03/03 01:12:24;;;;;;;25.67;13.38;;;;;;;1.46;74.17;102036.84;5055213;28;20380;-58
2022/03/03 01:14:52;;;;;;;22.42;12.25;;;;;;;1.45;74.55;102031.66;5055473;28;20045;-58
2022/03/03 01:17:20;;;;;;;26.08;11.75;;;;;;;1.48;73.95;102031.63;5055393;28;20056;-58
2022/03/03 01:19:48;;;;;;;21.63;11.77;;;;;;;1.48;73.61;102027.28;5055313;28;20484;-53
2022/03/03 01:22:16;;;;;;;24.85;11.60;;;;;;;1.52;73.21;102020.34;5054971;28;20056;-48
2022/03/03 01:24:46;;;;;;;24.90;12.90;;;;;;;1.49;72.96;102018.66;5054764;28;20048;-48
2022/03/03 01:27:14;;;;;;;27.02;13.52;;;;;;;1.40;73.56;102023.91;5049739;28;20503;-49
2022/03/03 01:29:43;;;;;;;24.08;11.60;;;;;;;1.39;73.67;102024.78;5051133;28;20056;-50
2022/03/03 01:32:11;;;;;;;22.77;12.68;;;;;;;1.41;73.27;102020.44;5054873;28;20048;-59
2022/03/03 01:34:39;;;;;;;26.05;13.77;;;;;;;1.36;73.02;102019.63;5052219;28;20103;-59
2022/03/03 01:37:07;;;;;;;26.35;13.05;;;;;;;1.30;73.30;102007.56;5050272;28;20144;-58
2022/03/03 01:39:35;;;;;;;23.75;12.35;;;;;;;1.36;73.30;102011.84;5053488;28;20059;-54
2022/03/03 01:42:05;;;;;;;25.30;13.07;;;;;;;1.29;73.33;102011.03;5054788;28;20496;-50
2022/03/03 01:44:34;;;;;;;24.27;14.07;;;;;;;1.23;73.66;102005.03;5054676;28;20053;-58
2022/03/03 01:47:02;;;;;;;23.35;13.35;;;;;;;1.24;73.80;101998.97;5054718;28;20400;-52
2022/03/03 01:49:30;;;;;;;24.33;13.65;;;;;;;1.15;74.46;101998.19;5053123;28;20151;-53
2022/03/03 01:51:58;;;;;;;24.38;13.13;;;;;;;1.13;75.00;102002.53;5050743;28;20041;-59
2022/03/03 01:54:26;;;;;;;29.48;13.45;;;;;;;1.17;75.03;101996.44;5053292;28;20049;-59
2022/03/03 01:56:55;;;;;;;25.38;13.70;;;;;;;1.09;75.29;102000.81;5053184;28;20053;-59
2022/03/03 01:59:24;;;;;;;26.02;14.25;;;;;;;1.12;74.99;101999.94;5054247;28;20057;-52
2022/03/03 02:01:53;;;;;;;22.73;12.65;;;;;;;1.08;75.13;101993.91;5054514;28;20045;-51
2022/03/03 02:04:21;;;;;;;24.00;13.15;;;;;;;1.06;75.04;101995.66;5054459;28;20072;-55
2022/03/03 02:06:49;;;;;;;28.80;14.50;;;;;;;1.04;75.21;101991.34;5053850;28;20071;-58
2022/03/03 02:09:18;;;;;;;24.85;13.35;;;;;;;1.08;74.79;101999.09;5050365;28;20056;-47
2022/03/03 02:11:47;;;;;;;29.83;15.10;;;;;;;0.97;75.46;101987.97;5050704;28;20099;-50
2022/03/03 02:14:16;;;;;;;27.52;14.02;;;;;;;0.97;75.51;101990.56;5054225;28;20193;-58
2022/03/03 02:16:45;;;;;;;28.67;15.15;;;;;;;0.98;75.29;101989.66;5054062;28;20496;-58
2022/03/03 02:19:17;;;;;;;24.23;12.88;;;;;;;0.96;74.70;101989.66;5054107;28;20073;-58
2022/03/03 02:21:49;;;;;;;27.35;14.65;;;;;;;0.97;74.74;101990.56;5053852;28;20061;-51
2022/03/03 02:24:18;;;;;;;29.65;14.23;;;;;;;1.00;74.41;101985.34;5053866;28;20052;-58
2022/03/03 02:26:47;;;;;;;27.50;14.45;;;;;;;0.98;74.77;101977.59;5053843;28;20098;-51
2022/03/03 02:29:15;;;;;;;28.33;15.32;;;;;;;0.93;75.15;101973.31;5054144;28;20057;-50
2022/03/03 02:31:45;;;;;;;28.67;14.05;;;;;;;0.90;75.08;101966.41;5053744;28;20056;-51
2022/03/03 02:34:13;;;;;;;28.10;13.50;;;;;;;0.86;75.00;101969.00;5053967;28;20494;-48
2022/03/03 02:36:41;;;;;;;23.45;13.20;;;;;;;0.90;75.00;101968.13;5053688;28;20476;-49
2022/03/03 02:39:11;;;;;;;24.92;13.90;;;;;;;0.89;74.82;101971.59;5053637;28;20055;-49
2022/03/03 02:41:39;;;;;;;23.90;14.35;;;;;;;0.84;75.00;101976.81;5051175;28;20389;-51
2022/03/03 02:44:07;;;;;;;24.77;14.00;;;;;;;0.89;74.93;101972.47;5049774;28;20071;-58
2022/03/03 02:46:35;;;;;;;26.40;14.32;;;;;;;0.83;75.36;101969.91;5052442;28;20063;-60
2022/03/03 02:49:05;;;;;;;29.45;15.23;;;;;;;0.82;75.70;101974.22;5053154;28;20049;-58
2022/03/03 02:51:33;;;;;;;23.17;13.00;;;;;;;0.77;76.18;101968.22;5053390;28;20052;-51
2022/03/03 02:54:01;;;;;;;28.33;14.13;;;;;;;0.77;76.03;101965.63;5053157;28;20041;-58
2022/03/03 02:56:31;;;;;;;26.15;13.60;;;;;;;0.74;76.11;101963.06;5050955;28;20437;-58
2022/03/03 02:58:59;;;;;;;27.92;14.88;;;;;;;0.71;76.05;101957.91;5047662;28;20152;-58
2022/03/03 03:01:27;;;;;;;28.02;14.15;;;;;;;0.70;76.10;101961.34;5052480;28;20049;-57
2022/03/03 03:03:55;;;;;;;26.67;14.05;;;;;;;0.72;76.11;101959.59;5048872;28;20044;-58
2022/03/03 03:06:24;;;;;;;25.10;13.90;;;;;;;0.70;76.06;101956.19;5050840;28;20051;-57
2022/03/03 03:08:52;;;;;;;30.35;14.32;;;;;;;0.64;76.37;101957.06;5051161;28;20045;-58
2022/03/03 03:11:20;;;;;;;27.20;14.60;;;;;;;0.60;75.99;101960.56;5049360;28;20053;-58
2022/03/03 03:13:49;;;;;;;28.20;13.98;;;;;;;0.58;75.96;101951.06;5051872;28;20049;-58
2022/03/03 03:16:17;;;;;;;25.85;12.98;;;;;;;0.58;76.14;101949.34;5053127;28;20549;-58
2022/03/03 03:18:46;;;;;;;24.88;13.95;;;;;;;0.58;76.18;101945.91;5053169;28;20545;-48
2022/03/03 03:21:14;;;;;;;27.58;14.23;;;;;;;0.56;75.99;101945.03;5052792;28;20055;-58
2022/03/03 03:23:42;;;;;;;28.75;12.77;;;;;;;0.57;76.15;101944.16;5050503;28;20466;-51
2022/03/03 03:26:10;;;;;;;26.58;14.63;;;;;;;0.53;76.08;101947.66;5049492;28;20048;-50
2022/03/03 03:28:38;;;;;;;28.60;14.40;;;;;;;0.47;76.64;101948.53;5051765;28;20506;-57
2022/03/03 03:31:08;;;;;;;26.92;14.10;;;;;;;0.43;76.46;101947.69;5048794;28;20114;-59
2022/03/03 03:33:36;;;;;;;25.60;13.23;;;;;;;0.39;76.86;101942.53;5049291;28;20048;-58
2022/03/03 03:36:04;;;;;;;25.27;13.77;;;;;;;0.39;77.04;101934.78;5052590;28;20073;-59
2022/03/03 03:38:32;;;;;;;25.90;12.82;;;;;;;0.39;77.05;101937.38;5052733;28;20419;-59
2022/03/03 03:41:00;;;;;;;29.50;14.27;;;;;;;0.38;77.14;101928.72;5052412;28;20365;-51
2022/03/03 03:43:29;;;;;;;25.23;13.75;;;;;;;0.37;77.20;101928.72;5052565;28;20446;-50
2022/03/03 03:45:57;;;;;;;27.45;13.32;;;;;;;0.34;77.19;101929.59;5052669;28;20122;-52
2022/03/03 03:48:26;;;;;;;28.02;14.45;;;;;;;0.36;76.86;101920.13;5050084;28;20504;-58
2022/03/03 03:50:55;;;;;;;24.80;13.73;;;;;;;0.34;77.12;101921.84;5048843;28;20049;-58
2022/03/03 03:53:23;;;;;;;28.88;13.80;;;;;;;0.35;76.88;101908.03;5051804;28;20051;-58
2022/03/03 03:55:54;;;;;;;22.80;12.57;;;;;;;0.32;76.74;101913.25;5052074;28;20471;-59
2022/03/03 03:58:22;;;;;;;27.33;14.02;;;;;;;0.29;77.32;101897.75;5052015;28;20052;-52
2022/03/03 04:00:52;;;;;;;25.30;14.00;;;;;;;0.31;77.16;101906.34;5051919;28;20120;-58
2022/03/03 04:03:20;;;;;;;26.80;14.43;;;;;;;0.28;77.11;101916.72;5051873;28;20064;-58
2022/03/03 04:05:50;;;;;;;25.40;13.38;;;;;;;0.24;77.47;101917.59;5051961;28;20053;-52
2022/03/03 04:08:19;;;;;;;26.73;13.63;;;;;;;0.21;77.63;101918.47;5052148;28;20084;-58
2022/03/03 04:10:48;;;;;;;26.15;14.57;;;;;;;0.17;78.02;101927.97;5051906;28;20045;-58
2022/03/03 04:13:16;;;;;;;26.80;14.65;;;;;;;0.16;78.07;101927.97;5052017;28;20053;-59
2022/03/03 04:15:44;;;;;;;25.60;13.93;;;;;;;0.12;78.49;101921.97;5051943;28;20111;-58
2022/03/03 04:18:13;;;;;;;23.52;13.43;;;;;;;0.11;78.62;101921.97;5052178;28;20049;-51
2022/03/03 04:20:42;;;;;;;29.05;14.93;;;;;;;0.08;78.60;101916.81;5052338;28;20506;-59
2022/03/03 04:23:11;;;;;;;26.27;14.20;;;;;;;0.04;79.26;101917.69;5050801;28;20090;-58
2022/03/03 04:25:39;;;;;;;26.33;14.55;;;;;;;0.02;78.79;101916.84;5051934;28;20442;-58
2022/03/03 04:28:07;;;;;;;27.15;13.80;;;;;;;0.00;79.20;101911.69;5052069;28;20048;-52
2022/03/03 04:30:36;;;;;;;29.85;14.60;;;;;;;-0.01;78.90;101900.47;5049902;28;20555;-50
2022/03/03 04:33:04;;;;;;;26.27;14.55;;;;;;;-0.04;79.27;101907.34;5046832;28;20041;-58
2022/03/03 04:35:32;;;;;;;26.55;13.90;;;;;;;-0.05;79.10;101903.06;5051805;28;20041;-58
2022/03/03 04:38:00;;;;;;;25.17;13.30;;;;;;;-0.09;79.19;101899.63;5052099;28;20041;-49
2022/03/03 04:40:29;;;;;;;26.80;13.43;;;;;;;-0.09;78.88;101906.53;5052072;28;20377;-58
2022/03/03 04:42:57;;;;;;;26.25;14.27;;;;;;;-0.11;79.00;101903.97;5050746;28;20048;-58
2022/03/03 04:45:26;;;;;;;27.35;12.68;;;;;;;-0.12;79.01;101901.34;5051736;28;20041;-51
2022/03/03 04:47:54;;;;;;;23.83;13.07;;;;;;;-0.13;79.15;101902.25;5051839;28;20073;-52
2022/03/03 04:50:22;;;;;;;24.88;13.05;;;;;;;-0.08;79.07;101900.47;5051742;28;20068;-58
2022/03/03 04:52:50;;;;;;;27.70;14.02;;;;;;;-0.12;79.20;101897.06;5050363;28;20148;-51
2022/03/03 04:55:18;;;;;;;27.63;13.48;;;;;;;-0.17;79.30;101889.31;5048482;28;20475;-58
2022/03/03 04:57:48;;;;;;;24.08;13.55;;;;;;;-0.21;79.46;101897.09;5050465;28;20059;-60
2022/03/03 05:00:17;;;;;;;26.33;13.88;;;;;;;-0.23;79.61;101893.63;5051310;28;20061;-59
2022/03/03 05:02:45;;;;;;;29.85;15.43;;;;;;;-0.29;79.85;101885.91;5051977;28;20457;-48
2022/03/03 05:05:14;;;;;;;28.00;13.85;;;;;;;-0.25;79.82;101879.88;5051850;28;20049;-58
2022/03/03 05:07:42;;;;;;;26.10;13.40;;;;;;;-0.29;80.13;101873.84;5049997;28;20095;-51
2022/03/03 05:10:11;;;;;;;25.33;13.35;;;;;;;-0.32;80.21;101884.19;5048686;28;20045;-52
2022/03/03 05:12:39;;;;;;;28.67;13.40;;;;;;;-0.32;80.31;101897.13;5050968;28;20484;-58
2022/03/03 05:15:09;;;;;;;26.52;14.65;;;;;;;-0.36;80.30;101892.81;5053438;28;20579;-58
2022/03/03 05:17:37;;;;;;;26.88;13.88;;;;;;;-0.39;80.42;101905.78;5054775;28;20513;-50
2022/03/03 05:20:06;;;;;;;29.48;15.10;;;;;;;-0.43;80.60;101894.56;5054871;28;20052;-49
2022/03/03 05:22:34;;;;;;;26.42;13.90;;;;;;;-0.41;80.56;101897.13;5055025;28;20045;-50
2022/03/03 05:25:03;;;;;;;28.30;14.13;;;;;;;-0.40;80.90;101897.13;5055009;28;20080;-59
2022/03/03 05:27:33;;;;;;;22.73;13.60;;;;;;;-0.42;80.83;101898.03;5055457;28;20110;-58
2022/03/03 05:30:01;;;;;;;25.27;13.98;;;;;;;-0.43;80.48;101897.16;5055100;28;20041;-48
2022/03/03 05:32:31;;;;;;;25.50;14.57;;;;;;;-0.48;81.39;101892.84;5055016;28;20069;-50
2022/03/03 05:35:00;;;;;;;25.08;13.50;;;;;;;-0.47;80.80;101895.44;5052314;28;20107;-47
2022/03/03 05:37:28;;;;;;;27.63;14.70;;;;;;;-0.59;82.46;101904.06;5051268;28;20040;-48
2022/03/03 05:39:57;;;;;;;25.65;14.52;;;;;;;-0.62;82.41;101898.91;5054492;28;20571;-58
2022/03/03 05:42:25;;;;;;;26.73;14.05;;;;;;;-0.59;82.33;101911.81;5054811;28;20052;-58
2022/03/03 05:44:54;;;;;;;27.83;14.25;;;;;;;-0.66;82.55;101906.69;5054919;28;20041;-58
2022/03/03 05:47:22;;;;;;;26.58;14.23;;;;;;;-0.68;83.02;101906.69;5054628;28;20438;-59
2022/03/03 05:49:54;;;;;;;24.13;13.40;;;;;;;-0.68;83.28;101910.13;5054587;28;20052;-58
2022/03/03 05:52:22;;;;;;;25.80;13.77;;;;;;;-0.66;83.18;101919.59;5051412;28;20071;-58
2022/03/03 05:54:50;;;;;;;24.63;13.55;;;;;;;-0.63;83.38;101917.00;5051480;28;20565;-47
2022/03/03 05:57:22;;;;;;;25.27;13.32;;;;;;;-0.73;84.51;101911.00;5054403;28;20156;-50
2022/03/03 05:59:51;;;;;;;28.13;14.98;;;;;;;-0.75;84.67;101910.13;5054065;28;20503;-48
2022/03/03 06:02:21;;;;;;;26.70;13.98;;;;;;;-0.78;85.16;101912.72;5051125;28;20052;-49
2022/03/03 06:04:49;;;;;;;26.88;14.18;;;;;;;-0.76;85.14;101916.19;5049890;28;20041;-58
2022/03/03 06:07:25;;;;;;;26.70;14.25;;;;;;;-0.77;85.16;101919.59;5054201;28;20057;-48
2022/03/03 06:09:56;;;;;;;22.83;12.30;;;;;;;-0.77;84.60;101914.44;5054364;28;20114;-47
2022/03/03 06:12:34;;;;;;;28.42;14.32;;;;;;;-0.87;86.09;101914.44;5053187;28;20073;-46
2022/03/03 06:15:05;;;;;;;26.70;14.07;;;;;;;-0.90;86.36;101911.00;5053917;28;20056;-47
2022/03/03 06:17:35;;;;;;;26.55;14.23;;;;;;;-0.92;86.29;101913.56;5052260;28;20057;-49
2022/03/03 06:20:05;;;;;;;25.08;13.57;;;;;;;-0.94;86.69;101911.84;5047980;28;20047;-53
2022/03/03 06:22:35;;;;;;;28.02;14.32;;;;;;;-0.98;86.65;101913.59;5051485;28;20048;-50
2022/03/03 06:25:05;;;;;;;26.75;14.02;;;;;;;-0.97;86.70;101923.03;5050523;28;20049;-51
2022/03/03 06:27:34;;;;;;;27.67;14.40;;;;;;;-0.98;86.77;101918.75;5050325;28;20603;-58
2022/03/03 06:30:02;;;;;;;26.92;14.13;;;;;;;-0.96;87.08;101922.19;5052950;28;20107;-58
2022/03/03 06:32:31;;;;;;;28.48;13.50;;;;;;;-1.01;87.15;101921.31;5053923;28;20049;-58
2022/03/03 06:34:59;;;;;;;28.52;14.43;;;;;;;-1.00;87.75;101909.28;5052058;28;20044;-48
2022/03/03 06:37:27;;;;;;;24.35;13.02;;;;;;;-1.02;87.92;101912.72;5050310;28;20048;-51
2022/03/03 06:39:57;;;;;;;27.50;14.63;;;;;;;-1.00;87.77;101915.31;5052501;28;20091;-58
2022/03/03 06:42:26;;;;;;;27.05;14.90;;;;;;;-0.98;88.17;101917.88;5050196;28;20051;-58
2022/03/03 06:44:55;;;;;;;26.52;14.82;;;;;;;-0.97;88.23;101915.28;5050247;28;20045;-58
2022/03/03 06:47:23;;;;;;;27.50;15.25;;;;;;;-0.94;87.82;101909.28;5050671;28;20040;-58
2022/03/03 06:49:51;;;;;;;28.90;15.75;;;;;;;-0.92;87.43;101912.72;5048807;28;20051;-59
2022/03/03 06:52:26;;;;;;;32.33;15.70;;;;;;;-0.89;87.29;101915.31;5050807;28;20091;-58
2022/03/03 06:54:55;;;;;;;25.58;13.57;;;;;;;-0.81;86.29;101912.72;5052846;28;20041;-58
2022/03/03 06:57:24;;;;;;;27.23;14.85;;;;;;;-0.79;86.09;101918.72;5052758;28;20052;-58
2022/03/03 06:59:54;;;;;;;24.85;14.20;;;;;;;-0.68;85.25;101914.44;5052838;28;20139;-58
2022/03/03 07:02:22;;;;;;;27.58;14.75;;;;;;;-0.67;85.07;101908.38;5053182;28;20106;-58
2022/03/03 07:04:51;;;;;;;25.67;14.75;;;;;;;-0.70;85.12;101909.25;5053070;28;20201;-58
2022/03/03 07:07:20;;;;;;;27.30;15.57;;;;;;;-0.70;84.71;101911.84;5052917;28;20044;-58
2022/03/03 07:09:49;;;;;;;26.30;14.85;;;;;;;-0.65;84.62;101919.59;5052901;28;20055;-58
2022/03/03 07:12:19;;;;;;;29.02;15.93;;;;;;;-0.62;84.38;101921.31;5052913;28;20056;-58
2022/03/03 07:14:48;;;;;;;27.08;15.85;;;;;;;-0.58;84.03;101923.88;5050546;28;20049;-59
2022/03/03 07:17:23;;;;;;;30.20;15.70;;;;;;;-0.52;83.73;101923.88;5049254;28;20048;-59
2022/03/03 07:20:02;;;;;;;27.58;14.95;;;;;;;-0.43;82.97;101925.59;5051004;28;20045;-58
2022/03/03 07:22:35;;;;;;;26.58;14.70;;;;;;;-0.36;83.07;101921.25;5052991;28;20045;-58
2022/03/03 07:25:06;;;;;;;23.80;13.70;;;;;;;-0.28;82.61;101923.84;5053028;28;20496;-59
2022/03/03 07:27:36;;;;;;;29.30;14.48;;;;;;;-0.17;82.03;101920.34;5052804;28;20059;-59
2022/03/03 07:30:08;;;;;;;29.25;14.50;;;;;;;-0.06;81.90;101919.44;5049550;28;20436;-59
2022/03/03 07:32:38;;;;;;;27.70;15.00;;;;;;;0.25;80.47;101927.09;5049492;28;20476;-59
2022/03/03 07:35:09;;;;;;;25.42;14.18;;;;;;;0.43;79.73;101926.97;5051290;28;20036;-58
2022/03/03 07:37:48;;;;;;;26.42;14.45;;;;;;;0.57;79.04;101926.03;5048549;28;20045;-59
2022/03/03 07:40:18;;;;;;;27.63;14.05;;;;;;;0.61;79.49;101927.75;5051388;28;20049;-59
2022/03/03 07:42:50;;;;;;;26.83;13.52;;;;;;;1.14;76.50;101928.22;5051212;28;20060;-58
2022/03/03 07:45:19;;;;;;;25.83;14.75;;;;;;;1.31;76.25;101934.13;5052593;28;20416;-58
2022/03/03 07:47:49;;;;;;;25.77;14.13;;;;;;;1.43;75.66;101938.34;5052277;28;20048;-59
2022/03/03 07:50:18;;;;;;;25.75;13.43;;;;;;;1.65;74.61;101935.50;5052411;28;20056;-59
2022/03/03 07:52:52;;;;;;;25.40;14.13;;;;;;;1.67;73.04;101931.19;5052568;28;20057;-59
2022/03/03 07:55:20;;;;;;;25.27;13.57;;;;;;;1.78;72.45;101931.91;5049390;28;20041;-58
2022/03/03 07:57:57;;;;;;;26.30;14.05;;;;;;;1.96;72.81;101936.03;5049317;28;20566;-59
2022/03/03 08:00:29;;;;;;;24.48;14.05;;;;;;;2.04;72.15;101933.34;5052247;28;20057;-60
2022/03/03 08:03:00;;;;;;;26.05;14.63;;;;;;;2.38;69.97;101932.91;5052284;28;20407;-59
2022/03/03 08:05:30;;;;;;;24.08;15.55;;;;;;;2.80;69.30;101928.00;5052308;28;20045;-59
2022/03/03 08:08:01;;;;;;;22.70;13.02;;;;;;;3.28;69.23;101921.16;5048939;28;20057;-59
2022/03/03 08:10:31;;;;;;;25.77;13.88;;;;;;;3.55;67.32;101927.63;5047730;28;20083;-59
2022/03/03 08:13:00;;;;;;;24.52;14.13;;;;;;;4.02;67.03;101919.75;5052020;28;20131;-59
2022/03/03 08:15:30;;;;;;;29.23;14.93;;;;;;;4.05;66.11;101920.56;5050086;28;20053;-58
2022/03/03 08:17:58;;;;;;;25.65;16.02;;;;;;;3.92;65.73;101918.25;5047211;28;20438;-59
2022/03/03 08:20:26;;;;;;;27.40;16.10;;;;;;;3.89;65.56;101920.00;5051620;28;20045;-59
2022/03/03 08:22:55;;;;;;;29.23;17.17;;;;;;;4.26;65.94;101930.56;5051363;28;20098;-58
2022/03/03 08:25:23;;;;;;;28.30;16.25;;;;;;;4.64;63.70;101926.25;5048397;28;20045;-58
2022/03/03 08:27:53;;;;;;;24.95;16.13;;;;;;;4.56;62.71;101919.44;5049874;28;20041;-60
2022/03/03 08:30:22;;;;;;;29.45;16.35;;;;;;;4.53;63.59;101927.34;5052043;28;20412;-59
2022/03/03 08:33:00;;;;;;;25.45;15.25;;;;;;;4.55;62.93;101925.56;5047358;28;20045;-59
2022/03/03 08:35:34;;;;;;;24.77;14.45;;;;;;;5.00;62.56;101928.88;5049217;28;20049;-59
2022/03/03 08:38:05;;;;;;;28.33;15.82;;;;;;;4.94;61.36;101931.66;5051850;28;20056;-59
2022/03/03 08:40:34;;;;;;;25.92;14.95;;;;;;;5.09;61.45;101923.44;5052008;28;20065;-60
2022/03/03 08:43:05;;;;;;;22.23;14.30;;;;;;;4.96;61.25;101917.66;5051936;28;20044;-58
2022/03/03 08:45:34;;;;;;;24.92;13.70;;;;;;;5.34;61.47;101922.81;5051734;28;20095;-59
2022/03/03 08:48:07;;;;;;;22.48;13.68;;;;;;;5.63;60.14;101926.38;5053091;28;20092;-59
2022/03/03 08:50:39;;;;;;;25.60;14.48;;;;;;;5.42;61.10;101926.91;5055804;28;20053;-60
2022/03/03 08:53:09;;;;;;;23.25;14.07;;;;;;;5.96;59.60;101931.56;5055761;28;20045;-59
2022/03/03 08:55:39;;;;;;;26.98;15.02;;;;;;;5.95;58.65;101925.50;5055201;28;20515;-59
2022/03/03 08:58:09;;;;;;;24.83;15.05;;;;;;;5.93;59.53;101928.16;5055570;28;20064;-59
2022/03/03 09:00:37;;;;;;;22.45;13.95;;;;;;;6.25;58.70;101929.00;5055426;28;20053;-58
2022/03/03 09:03:07;;;;;;;27.05;14.85;;;;;;;6.11;58.07;101919.84;5055752;28;20079;-59
2022/03/03 09:05:36;;;;;;;25.17;14.80;;;;;;;6.33;57.95;101930.56;5055568;28;20131;-59
2022/03/03 09:08:04;;;;;;;23.50;13.73;;;;;;;6.62;57.70;101915.72;5055519;28;20399;-59
2022/03/03 09:10:32;;;;;;;25.92;13.93;;;;;;;6.86;56.81;101914.09;5052164;28;20065;-59
2022/03/03 09:13:01;;;;;;;20.95;12.57;;;;;;;6.85;56.61;101918.47;5052275;28;20056;-60
2022/03/03 09:15:30;;;;;;;20.40;12.93;;;;;;;7.08;55.99;101915.09;5053824;28;20511;-60
2022/03/03 09:17:58;;;;;;;24.73;13.65;;;;;;;7.17;56.40;101924.41;5055274;28;20087;-59
2022/03/03 09:20:28;;;;;;;20.20;13.18;;;;;;;7.42;55.13;101913.09;5055290;28;20545;-59
2022/03/03 09:22:56;;;;;;;21.75;13.02;;;;;;;7.33;54.95;101923.88;5055260;28;20567;-60
2022/03/03 09:25:24;;;;;;;23.27;12.48;;;;;;;7.59;54.71;101923.84;5055136;28;20083;-59
2022/03/03 09:27:52;;;;;;;22.45;13.57;;;;;;;7.45;54.09;101923.44;5055177;28;20057;-58
2022/03/03 09:30:22;;;;;;;21.50;13.27;;;;;;;7.69;54.00;101916.50;5052917;28;20044;-59
2022/03/03 09:32:51;;;;;;;20.92;13.20;;;;;;;7.95;54.02;101914.69;5050053;28;20041;-59
2022/03/03 09:35:19;;;;;;;20.27;11.70;;;;;;;8.02;52.76;101907.47;5054526;28;20053;-58
2022/03/03 09:37:49;;;;;;;19.48;12.35;;;;;;;8.09;53.80;101911.56;5053970;28;20037;-59
2022/03/03 09:40:17;;;;;;;19.42;11.90;;;;;;;8.33;53.08;101898.41;5052056;28;20544;-58
2022/03/03 09:42:56;;;;;;;19.83;13.02;;;;;;;8.66;52.78;101900.66;5052489;28;20052;-59
2022/03/03 09:45:25;;;;;;;20.55;12.45;;;;;;;8.76;52.07;101909.84;5052472;28;20059;-59
2022/03/03 09:47:54;;;;;;;22.77;13.18;;;;;;;9.00;51.24;101897.50;5049658;28;20091;-58
2022/03/03 09:50:24;;;;;;;18.75;12.60;;;;;;;8.95;50.72;101894.22;5054699;28;20044;-59
2022/03/03 09:52:54;;;;;;;20.48;11.82;;;;;;;8.81;50.74;101900.03;5053468;28;20460;-59
2022/03/03 09:55:23;;;;;;;18.88;11.57;;;;;;;9.18;51.09;101914.25;5055019;28;20049;-59
2022/03/03 09:57:52;;;;;;;19.75;11.70;;;;;;;9.04;50.91;101903.47;5054346;28;20045;-59
2022/03/03 10:00:21;;;;;;;18.83;12.18;;;;;;;9.37;50.48;101908.22;5050886;28;20527;-58
2022/03/03 10:02:57;;;;;;;22.08;13.13;;;;;;;9.50;49.70;101898.88;5050336;28;20041;-58
2022/03/03 10:05:30;;;;;;;21.10;11.98;;;;;;;9.89;49.92;101900.66;5053972;28;20135;-59
2022/03/03 10:08:05;;;;;;;19.55;13.32;;;;;;;9.92;49.38;101894.41;5054418;28;20045;-58
2022/03/03 10:10:35;;;;;;;21.52;13.75;;;;;;;9.94;48.92;101898.66;5054354;28;20057;-59
2022/03/03 10:13:04;;;;;;;25.23;15.15;;;;;;;10.34;48.60;101893.34;5049123;28;20060;-59
2022/03/03 10:15:33;;;;;;;25.73;16.13;;;;;;;10.56;48.37;101893.19;5051577;28;20053;-59
2022/03/03 10:18:04;;;;;;;25.95;16.92;;;;;;;10.56;48.38;101893.19;5054423;28;20053;-59
2022/03/03 10:20:37;;;;;;;23.80;15.98;;;;;;;10.92;47.11;101897.59;5052246;28;20051;-59
2022/03/03 10:23:10;;;;;;;22.45;13.73;;;;;;;10.91;46.27;101889.75;5051186;28;20167;-58
2022/03/03 10:25:42;;;;;;;24.45;13.45;;;;;;;11.53;46.26;101887.44;5054294;28;20052;-57
2022/03/03 10:28:15;;;;;;;19.40;13.05;;;;;;;11.64;45.84;101885.13;5054278;28;20033;-60
2022/03/03 10:31:01;;;;;;;17.77;11.65;;;;;;;11.75;42.75;101878.41;5053961;28;20053;-60
2022/03/03 10:33:31;;;;;;;17.05;10.90;;;;;;;12.13;41.75;101876.38;5053898;28;20506;-60
2022/03/03 10:36:09;;;;;;;18.58;10.88;;;;;;;12.38;41.89;101876.75;5053867;28;20060;-60
2022/03/03 10:38:51;;;;;;;16.58;10.52;;;;;;;12.12;41.13;101884.34;5052612;28;20045;-60
2022/03/03 10:41:34;;;;;;;18.42;11.55;;;;;;;12.04;40.72;101881.28;5053917;28;20053;-60
2022/03/03 10:44:04;;;;;;;;;;;;;;;12.44;40.83;101882.53;5047401;28;20041;-57
2022/03/03 10:46:33;;;;;;;18.60;10.02;;;;;;;12.71;40.15;101883.69;5049036;28;20019;-60
2022/03/03 10:49:17;;;;;;;17.70;10.63;;;;;;;12.61;40.67;101873.69;5052632;28;20057;-58
2022/03/03 10:51:45;;;;;;;16.65;11.43;;;;;;;12.68;39.22;101869.75;5053504;28;20064;-59
2022/03/03 10:54:15;;;;;;;17.88;11.65;;;;;;;13.25;39.77;101873.50;5052354;28;20060;-58
2022/03/03 10:57:03;;;;;;;15.18;10.65;;;;;;;13.68;38.78;101870.88;5052851;28;20060;-58
2022/03/03 10:59:32;;;;;;;14.55;10.30;;;;;;;13.56;38.07;101874.28;5051227;28;20060;-58
2022/03/03 11:02:00;;;;;;;15.40;10.55;;;;;;;14.00;37.58;101875.94;5048744;28;20045;-58
2022/03/03 11:04:29;;;;;;;15.52;9.98;;;;;;;14.06;36.01;101874.72;5050891;28;20053;-58
2022/03/03 11:06:57;;;;;;;15.10;9.38;;;;;;;13.92;35.61;101864.16;5053225;28;20044;-59
2022/03/03 11:09:27;;;;;;;13.93;9.52;;;;;;;14.07;33.88;101872.91;5052744;28;20045;-59
2022/03/03 11:11:56;;;;;;;12.48;8.95;;;;;;;14.35;33.67;101872.81;5048098;28;20392;-59
2022/03/03 11:14:24;;;;;;;14.27;9.75;;;;;;;14.22;33.91;101860.50;5050165;28;20049;-59
2022/03/03 11:17:12;;;;;;;14.07;9.63;;;;;;;14.01;33.32;101874.16;5049117;28;20045;-59
2022/03/03 11:19:41;;;;;;;14.85;9.80;;;;;;;14.35;33.82;101861.41;5048091;28;20095;-59
2022/03/03 11:22:09;;;;;;;15.30;9.70;;;;;;;14.46;33.07;101853.59;5052912;28;20064;-59
2022/03/03 11:24:41;;;;;;;15.68;9.30;;;;;;;14.77;34.17;101856.91;5052954;28;20487;-59